Toronto, Ontario

05:34 PM EST on noiembrie 28, 2014 (GMT -0500)
Toronto-City Centre | Change Station
CLOSE
Current Station
Aeroport
Location: Toronto,
Elevation: 253 ft
Nearby Weather Stations

Elev 253 ft 43.63 °N, 79.40 °W | Updated 34 minutes ago

Overcast
Cer acoperit
27 °F
Feels Like 16 °F
N
13
Vânt variabil Vânt from VSV

Tomorrow is forecast to be nearly the same temperature as today.

astăzi
High -- | Low -- °F
--% Chance of Precip.
Ieri
High -- | Low -- °F
Precip. -- inch
7:27 AM 4:43 PM
Semilună în creştere, 44% visible
Presiunea 30.24 inch
Vizibilitatea 9.0 mile
Nori Few 3300 ft
Nori risipiţi 3900 ft
Cer acoperit 4500 ft
Vânt rece 16 °F
Punctul de rouă 16 °F
Umiditatea 64%
Precipitaţii 0.00 inch
Adâncimea zăpezii Not available.
UV 0 out of 12
Pollen Not available.
Calitatea aerului Not available.
Flu Activity Not available.
METAR CYTZ 282200Z AUTO 25011KT 9SM FEW033 SCT039 OVC045 M03/M09 A3022 RMK SLP238

More Conditions Fewer Conditions

Presiunea 30.24 inch
Vizibilitatea 9.0 mile
Nori Few 3300 ft
Nori risipiţi 3900 ft
Cer acoperit 4500 ft
Vânt rece 16 °F
Punctul de rouă 16 °F
Umiditatea 64%
Precipitaţii 0.00 inch
Adâncimea zăpezii Not available.
UV 0 out of 12
Pollen Not available.
Calitatea aerului Not available.
Flu Activity Not available.
METAR CYTZ 282200Z AUTO 25011KT 9SM FEW033 SCT039 OVC045 M03/M09 A3022 RMK SLP238

More Conditions Fewer Conditions

10-Day Weather Forecast

Almanac

Astronomie

Nov. 28, 2014 Răsărit Apus
Timpul Actual
Crepusculul Civil
Crepusculul nautic
Răsărit Astronomic
Luna
Durata zilei lumină
Lungimea zilei
Tomorrow will be .
, % of the Moon is Illuminated

Extremele de azi

Country Highs Country Lows

Community

WunderPhotos

Upload Photos

1,774,321 photos uploaded!

WunderBlogs® & News

Nearby

Calitatea aerului

  Calitatea aerului Index de calitate a aerului Poluat
Not available.

Adâncimea zapezii

Station Depth Elevation

Earthquake Activity

Oraş Distance Mag. Time & Date
Minimum magnitude displayed is 2.5.

Coastal Water Temperatures

Locul Temperatura

Nearby Weather Stations